sensor_id;sensor_type;location;lat;lon;timestamp;pressure;altitude;pressure_sealevel;temperature;humidity
76132;BME280;64877;50.994;13.650;2023-02-28T00:00:38;100993.06;;;-0.07;80.46
76132;BME280;64877;50.994;13.650;2023-02-28T00:03:04;100987.75;;;-0.07;80.10
76132;BME280;64877;50.994;13.650;2023-02-28T00:05:30;100990.41;;;-0.07;79.87
76132;BME280;64877;50.994;13.650;2023-02-28T00:07:55;100991.34;;;-0.11;79.69
76132;BME280;64877;50.994;13.650;2023-02-28T00:10:27;100997.56;;;-0.15;79.93
76132;BME280;64877;50.994;13.650;2023-02-28T00:12:55;100987.03;;;-0.18;80.30
76132;BME280;64877;50.994;13.650;2023-02-28T00:15:22;100990.53;;;-0.15;80.14
76132;BME280;64877;50.994;13.650;2023-02-28T00:17:48;100984.28;;;-0.12;79.81
76132;BME280;64877;50.994;13.650;2023-02-28T00:20:15;100985.22;;;-0.16;80.20
76132;BME280;64877;50.994;13.650;2023-02-28T00:22:42;100986.09;;;-0.14;79.94
76132;BME280;64877;50.994;13.650;2023-02-28T00:25:10;100984.25;;;-0.09;80.02
76132;BME280;64877;50.994;13.650;2023-02-28T00:27:37;100985.91;;;-0.02;79.96
76132;BME280;64877;50.994;13.650;2023-02-28T00:30:04;100981.56;;;-0.08;79.69
76132;BME280;64877;50.994;13.650;2023-02-28T00:32:30;100981.59;;;-0.11;80.05
76132;BME280;64877;50.994;13.650;2023-02-28T00:34:55;100982.50;;;-0.12;79.96
76132;BME280;64877;50.994;13.650;2023-02-28T00:37:21;100979.91;;;-0.15;80.32
76132;BME280;64877;50.994;13.650;2023-02-28T00:39:46;100979.00;;;-0.15;79.66
76132;BME280;64877;50.994;13.650;2023-02-28T00:42:12;100979.00;;;-0.15;80.11
76132;BME280;64877;50.994;13.650;2023-02-28T00:44:37;100978.97;;;-0.12;79.45
76132;BME280;64877;50.994;13.650;2023-02-28T00:47:02;100983.41;;;-0.13;79.42
76132;BME280;64877;50.994;13.650;2023-02-28T00:49:28;100975.50;;;-0.17;79.98
76132;BME280;64877;50.994;13.650;2023-02-28T00:51:54;100976.44;;;-0.21;79.76
76132;BME280;64877;50.994;13.650;2023-02-28T00:54:21;100983.50;;;-0.22;80.53
76132;BME280;64877;50.994;13.650;2023-02-28T00:56:46;100979.97;;;-0.22;79.54
76132;BME280;64877;50.994;13.650;2023-02-28T00:59:13;100976.38;;;-0.17;79.65
76132;BME280;64877;50.994;13.650;2023-02-28T01:01:39;100981.59;;;-0.09;79.32
76132;BME280;64877;50.994;13.650;2023-02-28T01:04:04;100978.06;;;-0.10;79.10
76132;BME280;64877;50.994;13.650;2023-02-28T01:06:30;100973.66;;;-0.12;79.42
76132;BME280;64877;50.994;13.650;2023-02-28T01:08:56;100982.56;;;-0.16;79.87
76132;BME280;64877;50.994;13.650;2023-02-28T01:11:22;100979.16;;;-0.28;79.66
76132;BME280;64877;50.994;13.650;2023-02-28T01:13:47;100975.50;;;-0.17;79.85
76132;BME280;64877;50.994;13.650;2023-02-28T01:16:13;100974.63;;;-0.18;79.79
76132;BME280;64877;50.994;13.650;2023-02-28T01:18:39;100971.00;;;-0.12;79.62
76132;BME280;64877;50.994;13.650;2023-02-28T01:21:05;100969.28;;;-0.15;79.52
76132;BME280;64877;50.994;13.650;2023-02-28T01:23:31;100971.03;;;-0.15;79.80
76132;BME280;64877;50.994;13.650;2023-02-28T01:25:57;100972.03;;;-0.22;79.98
76132;BME280;64877;50.994;13.650;2023-02-28T01:28:22;100966.59;;;-0.13;80.15
76132;BME280;64877;50.994;13.650;2023-02-28T01:30:50;100966.63;;;-0.16;80.22
76132;BME280;64877;50.994;13.650;2023-02-28T01:33:16;100971.94;;;-0.16;79.61
76132;BME280;64877;50.994;13.650;2023-02-28T01:35:41;100969.28;;;-0.16;80.20
76132;BME280;64877;50.994;13.650;2023-02-28T01:38:07;100963.22;;;-0.24;80.80
76132;BME280;64877;50.994;13.650;2023-02-28T01:40:32;100973.75;;;-0.18;80.40
76132;BME280;64877;50.994;13.650;2023-02-28T01:42:58;100970.25;;;-0.22;79.98
76132;BME280;64877;50.994;13.650;2023-02-28T01:45:31;100965.88;;;-0.24;80.24
76132;BME280;64877;50.994;13.650;2023-02-28T01:48:05;100957.09;;;-0.30;80.70
76132;BME280;64877;50.994;13.650;2023-02-28T01:50:37;100965.00;;;-0.27;80.45
76132;BME280;64877;50.994;13.650;2023-02-28T01:53:07;100965.84;;;-0.23;80.50
76132;BME280;64877;50.994;13.650;2023-02-28T01:55:34;100957.94;;;-0.28;80.35
76132;BME280;64877;50.994;13.650;2023-02-28T01:58:03;100957.91;;;-0.24;80.20
76132;BME280;64877;50.994;13.650;2023-02-28T02:00:30;100965.81;;;-0.21;79.78
76132;BME280;64877;50.994;13.650;2023-02-28T02:02:59;100956.13;;;-0.26;80.38
76132;BME280;64877;50.994;13.650;2023-02-28T02:05:28;100956.19;;;-0.29;80.60
76132;BME280;64877;50.994;13.650;2023-02-28T02:08:01;100958.84;;;-0.30;80.74
76132;BME280;64877;50.994;13.650;2023-02-28T02:10:34;100961.44;;;-0.26;80.96
76132;BME280;64877;50.994;13.650;2023-02-28T02:16:44;100956.28;;;-0.38;80.89
76132;BME280;64877;50.994;13.650;2023-02-28T02:27:57;100945.66;;;-0.38;80.78
76132;BME280;64877;50.994;13.650;2023-02-28T02:38:36;100947.34;;;-0.29;81.16
76132;BME280;64877;50.994;13.650;2023-02-28T02:44:02;100957.09;;;-0.30;81.24
76132;BME280;64877;50.994;13.650;2023-02-28T02:46:33;100952.72;;;-0.34;81.50
76132;BME280;64877;50.994;13.650;2023-02-28T02:49:02;100954.47;;;-0.36;81.76
76132;BME280;64877;50.994;13.650;2023-02-28T02:51:31;100956.28;;;-0.38;81.14
76132;BME280;64877;50.994;13.650;2023-02-28T02:54:02;100952.72;;;-0.34;81.08
76132;BME280;64877;50.994;13.650;2023-02-28T02:56:31;100950.09;;;-0.38;80.47
76132;BME280;64877;50.994;13.650;2023-02-28T02:59:02;100957.09;;;-0.33;79.81
76132;BME280;64877;50.994;13.650;2023-02-28T03:01:30;100959.00;;;-0.42;80.06
76132;BME280;64877;50.994;13.650;2023-02-28T03:06:22;100959.06;;;-0.50;80.48
76132;BME280;64877;50.994;13.650;2023-02-28T03:08:47;100956.41;;;-0.50;79.97
76132;BME280;64877;50.994;13.650;2023-02-28T03:11:14;100960.84;;;-0.50;80.83
76132;BME280;64877;50.994;13.650;2023-02-28T03:21:43;100959.16;;;-0.55;80.90
76132;BME280;64877;50.994;13.650;2023-02-28T03:24:17;100961.78;;;-0.56;80.83
76132;BME280;64877;50.994;13.650;2023-02-28T03:26:48;100952.03;;;-0.53;80.57
76132;BME280;64877;50.994;13.650;2023-02-28T03:29:23;100952.94;;;-0.55;80.83
76132;BME280;64877;50.994;13.650;2023-02-28T03:32:03;100949.34;;;-0.51;79.74
76132;BME280;64877;50.994;13.650;2023-02-28T03:34:33;100946.72;;;-0.51;79.77
76132;BME280;64877;50.994;13.650;2023-02-28T03:37:04;100954.69;;;-0.53;79.56
76132;BME280;64877;50.994;13.650;2023-02-28T03:39:37;100952.09;;;-0.57;80.14
76132;BME280;64877;50.994;13.650;2023-02-28T03:42:08;100949.44;;;-0.57;80.09
76132;BME280;64877;50.994;13.650;2023-02-28T03:44:44;100954.69;;;-0.53;80.92
76132;BME280;64877;50.994;13.650;2023-02-28T03:47:17;100948.53;;;-0.56;80.82
76132;BME280;64877;50.994;13.650;2023-02-28T03:50:01;100952.13;;;-0.59;80.72
76132;BME280;64877;50.994;13.650;2023-02-28T03:52:34;100949.44;;;-0.60;80.57
76132;BME280;64877;50.994;13.650;2023-02-28T03:55:04;100950.38;;;-0.60;80.78
76132;BME280;64877;50.994;13.650;2023-02-28T03:57:38;100956.56;;;-0.62;80.67
76132;BME280;64877;50.994;13.650;2023-02-28T04:02:34;100956.63;;;-0.68;80.88
76132;BME280;64877;50.994;13.650;2023-02-28T04:05:00;100972.56;;;-0.68;81.27
76132;BME280;64877;50.994;13.650;2023-02-28T04:07:29;100962.81;;;-0.68;81.18
76132;BME280;64877;50.994;13.650;2023-02-28T04:09:54;100969.91;;;-0.71;81.46
76132;BME280;64877;50.994;13.650;2023-02-28T04:12:20;100967.28;;;-0.73;80.73
76132;BME280;64877;50.994;13.650;2023-02-28T04:14:48;100974.41;;;-0.78;80.82
76132;BME280;64877;50.994;13.650;2023-02-28T04:17:13;100974.41;;;-0.76;80.67
76132;BME280;64877;50.994;13.650;2023-02-28T04:19:39;100973.53;;;-0.80;81.54
76132;BME280;64877;50.994;13.650;2023-02-28T04:22:04;100978.00;;;-0.85;81.01
76132;BME280;64877;50.994;13.650;2023-02-28T04:24:29;100984.22;;;-0.86;81.53
76132;BME280;64877;50.994;13.650;2023-02-28T04:26:56;100979.00;;;-0.97;81.10
76132;BME280;64877;50.994;13.650;2023-02-28T04:29:28;100983.41;;;-0.93;81.84
76132;BME280;64877;50.994;13.650;2023-02-28T04:31:54;100986.97;;;-0.97;81.45
76132;BME280;64877;50.994;13.650;2023-02-28T04:34:21;100988.75;;;-0.99;81.87
76132;BME280;64877;50.994;13.650;2023-02-28T04:36:47;100986.13;;;-1.05;81.98
76132;BME280;64877;50.994;13.650;2023-02-28T04:39:18;100987.91;;;-1.06;82.01
76132;BME280;64877;50.994;13.650;2023-02-28T04:41:45;100984.44;;;-1.12;81.56
76132;BME280;64877;50.994;13.650;2023-02-28T04:44:11;100983.53;;;-1.08;81.55
76132;BME280;64877;50.994;13.650;2023-02-28T04:46:36;100990.66;;;-1.16;80.95
76132;BME280;64877;50.994;13.650;2023-02-28T04:49:01;100997.75;;;-1.18;81.16
76132;BME280;64877;50.994;13.650;2023-02-28T04:51:27;100994.22;;;-1.17;81.89
76132;BME280;64877;50.994;13.650;2023-02-28T04:53:53;100993.38;;;-1.25;81.80
76132;BME280;64877;50.994;13.650;2023-02-28T04:56:19;100994.34;;;-1.33;81.40
76132;BME280;64877;50.994;13.650;2023-02-28T04:58:44;100991.66;;;-1.28;81.61
76132;BME280;64877;50.994;13.650;2023-02-28T05:03:49;100990.72;;;-1.25;81.00
76132;BME280;64877;50.994;13.650;2023-02-28T05:06:16;101000.50;;;-1.31;81.22
76132;BME280;64877;50.994;13.650;2023-02-28T05:08:41;100997.88;;;-1.34;82.03
76132;BME280;64877;50.994;13.650;2023-02-28T05:11:13;101003.19;;;-1.37;81.43
76132;BME280;64877;50.994;13.650;2023-02-28T05:13:39;100997.91;;;-1.40;81.88
76132;BME280;64877;50.994;13.650;2023-02-28T05:16:05;101005.91;;;-1.47;81.65
76132;BME280;64877;50.994;13.650;2023-02-28T05:18:30;101012.09;;;-1.50;81.22
76132;BME280;64877;50.994;13.650;2023-02-28T05:20:56;101005.94;;;-1.55;81.50
76132;BME280;64877;50.994;13.650;2023-02-28T05:23:22;101009.53;;;-1.59;82.08
76132;BME280;64877;50.994;13.650;2023-02-28T05:25:47;101012.19;;;-1.62;81.68
76132;BME280;64877;50.994;13.650;2023-02-28T05:28:13;101005.16;;;-1.69;81.19
76132;BME280;64877;50.994;13.650;2023-02-28T05:30:39;101010.44;;;-1.66;81.56
76132;BME280;64877;50.994;13.650;2023-02-28T05:33:05;101017.56;;;-1.73;80.49
76132;BME280;64877;50.994;13.650;2023-02-28T05:35:30;101019.41;;;-1.95;81.04
76132;BME280;64877;50.994;13.650;2023-02-28T05:37:55;101022.91;;;-1.87;80.97
76132;BME280;64877;50.994;13.650;2023-02-28T05:40:21;101018.50;;;-1.83;81.23
76132;BME280;64877;50.994;13.650;2023-02-28T05:42:46;101016.72;;;-1.86;80.52
76132;BME280;64877;50.994;13.650;2023-02-28T05:45:12;101026.47;;;-1.91;81.09
76132;BME280;64877;50.994;13.650;2023-02-28T05:47:37;101017.69;;;-1.99;81.91
76132;BME280;64877;50.994;13.650;2023-02-28T05:50:04;101014.13;;;-1.92;80.76
76132;BME280;64877;50.994;13.650;2023-02-28T05:52:30;101020.31;;;-1.93;80.67
76132;BME280;64877;50.994;13.650;2023-02-28T05:54:56;101022.09;;;-2.05;81.46
76132;BME280;64877;50.994;13.650;2023-02-28T05:57:22;101029.13;;;-1.94;81.02
76132;BME280;64877;50.994;13.650;2023-02-28T05:59:47;101022.94;;;-1.96;80.66
76132;BME280;64877;50.994;13.650;2023-02-28T06:02:14;101025.56;;;-1.90;80.68
76132;BME280;64877;50.994;13.650;2023-02-28T06:04:40;101029.13;;;-1.92;79.98
76132;BME280;64877;50.994;13.650;2023-02-28T06:07:07;101030.00;;;-1.89;79.72
76132;BME280;64877;50.994;13.650;2023-02-28T06:09:32;101037.97;;;-1.98;80.14
76132;BME280;64877;50.994;13.650;2023-02-28T06:11:59;101044.16;;;-1.99;80.44
76132;BME280;64877;50.994;13.650;2023-02-28T06:14:24;101042.38;;;-1.94;80.03
76132;BME280;64877;50.994;13.650;2023-02-28T06:16:50;101040.59;;;-1.89;80.15
76132;BME280;64877;50.994;13.650;2023-02-28T06:19:16;101040.56;;;-1.86;79.70
76132;BME280;64877;50.994;13.650;2023-02-28T06:21:42;101041.44;;;-1.87;79.87
76132;BME280;64877;50.994;13.650;2023-02-28T06:24:08;101047.59;;;-1.85;79.82
76132;BME280;64877;50.994;13.650;2023-02-28T06:26:33;101053.81;;;-1.92;79.03
76132;BME280;64877;50.994;13.650;2023-02-28T06:28:59;101055.50;;;-1.75;81.07
76132;BME280;64877;50.994;13.650;2023-02-28T06:31:26;101062.44;;;-1.54;80.10
76132;BME280;64877;50.994;13.650;2023-02-28T06:33:54;101054.44;;;-1.41;78.80
76132;BME280;64877;50.994;13.650;2023-02-28T06:36:20;101060.50;;;-1.22;78.82
76132;BME280;64877;50.994;13.650;2023-02-28T06:38:46;101063.97;;;-1.14;78.66
76132;BME280;64877;50.994;13.650;2023-02-28T06:41:16;101062.94;;;-0.96;77.77
76132;BME280;64877;50.994;13.650;2023-02-28T06:43:42;101069.91;;;-0.83;77.28
76132;BME280;64877;50.994;13.650;2023-02-28T06:46:11;101070.78;;;-0.81;76.38
76132;BME280;64877;50.994;13.650;2023-02-28T06:48:36;101072.47;;;-0.72;76.55
76132;BME280;64877;50.994;13.650;2023-02-28T06:51:10;101072.38;;;-0.61;76.34
76132;BME280;64877;50.994;13.650;2023-02-28T06:53:36;101077.53;;;-0.44;75.64
76132;BME280;64877;50.994;13.650;2023-02-28T06:56:06;101080.88;;;-0.24;76.67
76132;BME280;64877;50.994;13.650;2023-02-28T06:58:32;101083.34;;;-0.10;79.15
76132;BME280;64877;50.994;13.650;2023-02-28T07:00:58;101082.00;;;0.29;77.11
76132;BME280;64877;50.994;13.650;2023-02-28T07:03:23;101080.06;;;0.45;74.82
76132;BME280;64877;50.994;13.650;2023-02-28T07:05:49;101077.25;;;0.54;74.67
76132;BME280;64877;50.994;13.650;2023-02-28T07:08:14;101078.66;;;0.80;72.36
76132;BME280;64877;50.994;13.650;2023-02-28T07:10:40;101082.22;;;0.78;71.89
76132;BME280;64877;50.994;13.650;2023-02-28T07:13:07;101082.81;;;1.00;71.43
76132;BME280;64877;50.994;13.650;2023-02-28T07:15:34;101077.47;;;0.99;70.37
76132;BME280;64877;50.994;13.650;2023-02-28T07:17:59;101079.81;;;1.20;70.67
76132;BME280;64877;50.994;13.650;2023-02-28T07:20:25;101082.88;;;0.96;69.79
76132;BME280;64877;50.994;13.650;2023-02-28T07:22:51;101096.41;;;0.81;70.25
76132;BME280;64877;50.994;13.650;2023-02-28T07:25:26;101093.94;;;0.65;69.90
76132;BME280;64877;50.994;13.650;2023-02-28T07:27:52;101086.91;;;0.60;71.16
76132;BME280;64877;50.994;13.650;2023-02-28T07:30:18;101086.19;;;0.50;71.16
76132;BME280;64877;50.994;13.650;2023-02-28T07:32:44;101090.81;;;0.33;71.42
76132;BME280;64877;50.994;13.650;2023-02-28T07:35:09;101097.91;;;0.34;70.95
76132;BME280;64877;50.994;13.650;2023-02-28T07:37:34;101099.34;;;0.61;71.37
76132;BME280;64877;50.994;13.650;2023-02-28T07:40:04;101088.13;;;0.99;70.77
76132;BME280;64877;50.994;13.650;2023-02-28T07:42:32;101086.84;;;1.24;70.49
76132;BME280;64877;50.994;13.650;2023-02-28T07:44:57;101091.72;;;1.50;68.79
76132;BME280;64877;50.994;13.650;2023-02-28T07:47:24;101085.69;;;1.89;69.18
76132;BME280;64877;50.994;13.650;2023-02-28T07:49:49;101077.91;;;2.23;67.52
76132;BME280;64877;50.994;13.650;2023-02-28T07:52:15;101079.97;;;2.52;67.16
76132;BME280;64877;50.994;13.650;2023-02-28T07:54:40;101077.78;;;2.71;66.71
76132;BME280;64877;50.994;13.650;2023-02-28T07:57:06;101078.66;;;2.71;64.92
76132;BME280;64877;50.994;13.650;2023-02-28T07:59:31;101074.72;;;2.88;64.88
76132;BME280;64877;50.994;13.650;2023-02-28T08:01:57;101087.38;;;2.79;65.05
76132;BME280;64877;50.994;13.650;2023-02-28T08:04:22;101085.94;;;3.03;64.33
76132;BME280;64877;50.994;13.650;2023-02-28T08:06:48;101080.72;;;2.99;63.39
76132;BME280;64877;50.994;13.650;2023-02-28T08:09:13;101079.63;;;3.06;64.51
76132;BME280;64877;50.994;13.650;2023-02-28T08:11:39;101080.44;;;3.09;62.01
76132;BME280;64877;50.994;13.650;2023-02-28T08:14:05;101081.00;;;3.22;62.60
76132;BME280;64877;50.994;13.650;2023-02-28T08:16:31;101079.09;;;3.27;60.49
76132;BME280;64877;50.994;13.650;2023-02-28T08:18:56;101073.16;;;3.52;62.25
76132;BME280;64877;50.994;13.650;2023-02-28T08:21:21;101074.53;;;3.68;60.78
76132;BME280;64877;50.994;13.650;2023-02-28T08:23:48;101075.75;;;3.87;60.24
76132;BME280;64877;50.994;13.650;2023-02-28T08:26:14;101066.16;;;3.80;60.41
76132;BME280;64877;50.994;13.650;2023-02-28T08:28:40;101074.25;;;3.77;59.91
76132;BME280;64877;50.994;13.650;2023-02-28T08:31:13;101073.16;;;3.52;59.64
76132;BME280;64877;50.994;13.650;2023-02-28T08:33:40;101075.53;;;3.28;59.83
76132;BME280;64877;50.994;13.650;2023-02-28T08:36:08;101077.13;;;3.35;59.55
76132;BME280;64877;50.994;13.650;2023-02-28T08:38:34;101080.41;;;3.11;60.41
76132;BME280;64877;50.994;13.650;2023-02-28T08:41:02;101077.47;;;3.22;59.65
76132;BME280;64877;50.994;13.650;2023-02-28T08:43:28;101084.03;;;3.08;58.40
76132;BME280;64877;50.994;13.650;2023-02-28T08:45:55;101086.88;;;3.01;57.35
76132;BME280;64877;50.994;13.650;2023-02-28T08:48:22;101084.75;;;3.15;55.59
76132;BME280;64877;50.994;13.650;2023-02-28T08:53:25;101087.44;;;2.76;56.38
76132;BME280;64877;50.994;13.650;2023-02-28T08:55:58;101084.81;;;2.73;56.24
76132;BME280;64877;50.994;13.650;2023-02-28T08:58:24;101085.53;;;2.81;56.12
76132;BME280;64877;50.994;13.650;2023-02-28T09:00:50;101089.84;;;2.47;55.82
76132;BME280;64877;50.994;13.650;2023-02-28T09:03:16;101084.13;;;2.65;55.61
76132;BME280;64877;50.994;13.650;2023-02-28T09:05:54;101091.41;;;2.57;55.21
76132;BME280;64877;50.994;13.650;2023-02-28T09:08:20;101084.47;;;2.50;55.47
76132;BME280;64877;50.994;13.650;2023-02-28T09:10:46;101088.94;;;2.48;56.50
76132;BME280;64877;50.994;13.650;2023-02-28T09:13:12;101083.78;;;2.40;55.76
76132;BME280;64877;50.994;13.650;2023-02-28T09:15:38;101081.72;;;2.54;56.11
76132;BME280;64877;50.994;13.650;2023-02-28T09:18:04;101087.91;;;2.55;55.35
76132;BME280;64877;50.994;13.650;2023-02-28T09:20:29;101088.63;;;2.21;54.34
76132;BME280;64877;50.994;13.650;2023-02-28T09:22:55;101090.44;;;2.19;54.79
76132;BME280;64877;50.994;13.650;2023-02-28T09:25:20;101085.00;;;2.25;54.43
76132;BME280;64877;50.994;13.650;2023-02-28T09:27:46;101085.13;;;2.19;54.23
76132;BME280;64877;50.994;13.650;2023-02-28T09:30:12;101086.59;;;2.32;54.28
76132;BME280;64877;50.994;13.650;2023-02-28T09:32:37;101074.59;;;2.12;53.98
76132;BME280;64877;50.994;13.650;2023-02-28T09:35:03;101077.78;;;2.30;54.16
76132;BME280;64877;50.994;13.650;2023-02-28T09:37:29;101082.69;;;2.07;54.21
76132;BME280;64877;50.994;13.650;2023-02-28T09:39:55;101076.03;;;2.29;54.45
76132;BME280;64877;50.994;13.650;2023-02-28T09:42:30;101073.19;;;2.37;54.08
76132;BME280;64877;50.994;13.650;2023-02-28T09:44:58;101075.50;;;2.54;53.44
76132;BME280;64877;50.994;13.650;2023-02-28T09:47:34;101075.84;;;2.37;51.97
76132;BME280;64877;50.994;13.650;2023-02-28T09:50:11;101083.69;;;2.45;52.80
76132;BME280;64877;50.994;13.650;2023-02-28T09:52:41;101074.47;;;2.19;53.37
76132;BME280;64877;50.994;13.650;2023-02-28T09:57:49;101074.38;;;2.22;53.05
76132;BME280;64877;50.994;13.650;2023-02-28T10:00:23;101082.72;;;2.05;53.58
76132;BME280;64877;50.994;13.650;2023-02-28T10:06:19;101081.34;;;1.85;53.97
76132;BME280;64877;50.994;13.650;2023-02-28T10:08:52;101086.13;;;2.12;53.80
76132;BME280;64877;50.994;13.650;2023-02-28T10:11:22;101072.59;;;2.23;53.18
76132;BME280;64877;50.994;13.650;2023-02-28T10:14:01;101061.94;;;2.23;51.93
76132;BME280;64877;50.994;13.650;2023-02-28T10:16:38;101061.78;;;2.30;51.96
76132;BME280;64877;50.994;13.650;2023-02-28T10:19:06;101065.31;;;2.31;52.25
76132;BME280;64877;50.994;13.650;2023-02-28T10:21:38;101066.69;;;2.07;53.05
76132;BME280;64877;50.994;13.650;2023-02-28T10:27:16;101071.97;;;2.10;53.53
76132;BME280;64877;50.994;13.650;2023-02-28T10:29:45;101081.72;;;2.11;52.97
76132;BME280;64877;50.994;13.650;2023-02-28T10:32:15;101082.03;;;1.96;53.43
76132;BME280;64877;50.994;13.650;2023-02-28T10:34:42;101076.81;;;1.90;53.61
76132;BME280;64877;50.994;13.650;2023-02-28T10:37:07;101071.28;;;1.99;53.53
76132;BME280;64877;50.994;13.650;2023-02-28T10:39:38;101068.91;;;2.30;53.12
76132;BME280;64877;50.994;13.650;2023-02-28T10:42:04;101070.56;;;2.36;53.73
76132;BME280;64877;50.994;13.650;2023-02-28T10:44:30;101068.25;;;2.17;54.56
76132;BME280;64877;50.994;13.650;2023-02-28T10:46:56;101068.91;;;2.28;53.89
76132;BME280;64877;50.994;13.650;2023-02-28T10:49:24;101062.13;;;2.55;54.59
76132;BME280;64877;50.994;13.650;2023-02-28T10:51:53;101064.16;;;2.84;52.98
76132;BME280;64877;50.994;13.650;2023-02-28T10:54:29;101058.22;;;3.09;52.35
76132;BME280;64877;50.994;13.650;2023-02-28T10:59:32;101059.41;;;2.96;50.37
76132;BME280;64877;50.994;13.650;2023-02-28T11:01:57;101060.75;;;2.76;51.52
76132;BME280;64877;50.994;13.650;2023-02-28T11:06:57;101048.69;;;2.60;52.00
76132;BME280;64877;50.994;13.650;2023-02-28T11:09:36;101041.38;;;2.68;52.53
76132;BME280;64877;50.994;13.650;2023-02-28T11:12:17;101062.59;;;2.74;51.57
76132;BME280;64877;50.994;13.650;2023-02-28T11:14:50;101045.25;;;2.55;51.47
76132;BME280;64877;50.994;13.650;2023-02-28T11:17:22;101047.72;;;2.22;52.50
76132;BME280;64877;50.994;13.650;2023-02-28T11:19:52;101043.63;;;2.06;53.03
76132;BME280;64877;50.994;13.650;2023-02-28T11:22:27;101044.72;;;1.96;52.97
76132;BME280;64877;50.994;13.650;2023-02-28T11:24:59;101045.78;;;1.87;53.39
76132;BME280;64877;50.994;13.650;2023-02-28T11:29:59;101039.44;;;1.93;53.76
76132;BME280;64877;50.994;13.650;2023-02-28T11:32:27;101033.72;;;2.14;53.83
76132;BME280;64877;50.994;13.650;2023-02-28T11:37:37;101035.19;;;2.27;53.55
76132;BME280;64877;50.994;13.650;2023-02-28T11:40:18;101027.88;;;1.94;53.64
76132;BME280;64877;50.994;13.650;2023-02-28T11:48:17;101031.25;;;1.57;54.62
76132;BME280;64877;50.994;13.650;2023-02-28T11:50:52;101020.09;;;1.85;54.76
76132;BME280;64877;50.994;13.650;2023-02-28T11:55:58;101031.31;;;2.00;53.70
76132;BME280;64877;50.994;13.650;2023-02-28T11:59:08;101022.34;;;2.04;52.61
76132;BME280;64877;50.994;13.650;2023-02-28T12:02:15;101019.97;;;1.91;53.71
76132;BME280;64877;50.994;13.650;2023-02-28T12:05:13;101008.97;;;2.07;53.32
76132;BME280;64877;50.994;13.650;2023-02-28T12:08:07;101008.94;;;2.09;53.81
76132;BME280;64877;50.994;13.650;2023-02-28T12:10:49;100993.50;;;2.23;53.60
76132;BME280;64877;50.994;13.650;2023-02-28T12:13:26;100991.06;;;2.14;53.03
76132;BME280;64877;50.994;13.650;2023-02-28T12:19:40;101000.19;;;2.43;51.90
76132;BME280;64877;50.994;13.650;2023-02-28T12:22:12;101006.44;;;2.42;52.79
76132;BME280;64877;50.994;13.650;2023-02-28T12:24:57;101002.31;;;2.27;53.44
76132;BME280;64877;50.994;13.650;2023-02-28T12:27:27;100997.47;;;2.46;53.27
76132;BME280;64877;50.994;13.650;2023-02-28T12:30:02;100997.22;;;2.56;53.43
76132;BME280;64877;50.994;13.650;2023-02-28T12:32:35;100997.00;;;2.66;53.11
76132;BME280;64877;50.994;13.650;2023-02-28T12:37:37;100989.00;;;2.66;52.65
76132;BME280;64877;50.994;13.650;2023-02-28T12:40:10;100991.63;;;2.67;52.46
76132;BME280;64877;50.994;13.650;2023-02-28T12:42:40;100985.16;;;2.77;51.95
76132;BME280;64877;50.994;13.650;2023-02-28T12:45:23;100988.63;;;2.81;51.29
76132;BME280;64877;50.994;13.650;2023-02-28T12:48:01;100981.56;;;2.80;52.06
76132;BME280;64877;50.994;13.650;2023-02-28T12:50:29;100985.56;;;2.61;52.60
76132;BME280;64877;50.994;13.650;2023-02-28T12:55:47;100980.81;;;2.73;51.67
76132;BME280;64877;50.994;13.650;2023-02-28T12:58:23;100980.97;;;2.67;51.51
76132;BME280;64877;50.994;13.650;2023-02-28T13:01:15;100978.50;;;2.58;52.11
76132;BME280;64877;50.994;13.650;2023-02-28T13:09:11;100976.97;;;2.85;52.62
76132;BME280;64877;50.994;13.650;2023-02-28T13:11:47;100976.44;;;2.71;51.78
76132;BME280;64877;50.994;13.650;2023-02-28T13:14:23;100984.19;;;2.81;51.87
76132;BME280;64877;50.994;13.650;2023-02-28T13:19:45;100973.66;;;2.75;52.15
76132;BME280;64877;50.994;13.650;2023-02-28T13:24:54;100977.16;;;2.77;51.27
76132;BME280;64877;50.994;13.650;2023-02-28T13:29:51;100978.47;;;2.97;52.18
76132;BME280;64877;50.994;13.650;2023-02-28T13:39:57;100973.56;;;2.80;51.02
76132;BME280;64877;50.994;13.650;2023-02-28T13:52:56;100947.63;;;2.85;51.62
76132;BME280;64877;50.994;13.650;2023-02-28T13:55:43;100949.97;;;2.99;51.72
76132;BME280;64877;50.994;13.650;2023-02-28T14:01:31;100959.19;;;2.85;52.33
76132;BME280;64877;50.994;13.650;2023-02-28T14:06:29;100952.97;;;2.85;51.74
76132;BME280;64877;50.994;13.650;2023-02-28T14:09:00;100957.16;;;2.95;52.55
76132;BME280;64877;50.994;13.650;2023-02-28T14:11:37;100958.78;;;3.01;52.43
76132;BME280;64877;50.994;13.650;2023-02-28T14:14:05;100949.06;;;2.98;52.81
76132;BME280;64877;50.994;13.650;2023-02-28T14:16:44;100948.31;;;2.93;52.95
76132;BME280;64877;50.994;13.650;2023-02-28T14:19:24;100942.72;;;2.68;53.27
76132;BME280;64877;50.994;13.650;2023-02-28T14:38:32;100934.19;;;2.90;53.32
76132;BME280;64877;50.994;13.650;2023-02-28T14:41:03;100932.72;;;2.76;52.56
76132;BME280;64877;50.994;13.650;2023-02-28T14:43:29;100932.72;;;2.76;52.39
76132;BME280;64877;50.994;13.650;2023-02-28T14:46:02;100927.34;;;2.78;52.19
76132;BME280;64877;50.994;13.650;2023-02-28T14:48:29;100929.25;;;2.74;52.44
76132;BME280;64877;50.994;13.650;2023-02-28T14:50:57;100929.38;;;2.68;52.17
76132;BME280;64877;50.994;13.650;2023-02-28T14:53:26;100928.72;;;2.58;52.24
76132;BME280;64877;50.994;13.650;2023-02-28T14:55:52;100931.06;;;2.72;52.50
76132;BME280;64877;50.994;13.650;2023-02-28T14:58:28;100931.88;;;2.76;53.82
76132;BME280;64877;50.994;13.650;2023-02-28T15:00:56;100936.22;;;2.78;53.56
76132;BME280;64877;50.994;13.650;2023-02-28T15:03:23;100938.44;;;2.61;53.18
76132;BME280;64877;50.994;13.650;2023-02-28T15:05:57;100946.34;;;2.66;52.88